createdAt,value
2023-02-14T00:00:57.998Z,38.00
2023-02-14T00:02:59.968Z,38.00
2023-02-14T00:05:01.815Z,38.00
2023-02-14T00:07:03.753Z,38.00
2023-02-14T00:09:06.641Z,38.00
2023-02-14T00:11:08.387Z,38.00
2023-02-14T00:13:10.143Z,38.10
2023-02-14T00:15:11.907Z,38.10
2023-02-14T00:17:13.695Z,38.00
2023-02-14T00:19:16.543Z,38.10
2023-02-14T00:21:18.303Z,38.00
2023-02-14T00:23:20.039Z,38.00
2023-02-14T00:25:21.878Z,38.10
2023-02-14T00:27:23.629Z,38.10
2023-02-14T00:29:27.453Z,38.10
2023-02-14T00:31:29.405Z,38.10
2023-02-14T00:33:31.247Z,38.10
2023-02-14T00:35:37.401Z,38.00
2023-02-14T00:37:39.180Z,38.10
2023-02-14T00:39:41.014Z,38.00
2023-02-14T00:41:43.202Z,38.00
2023-02-14T00:43:46.144Z,38.00
2023-02-14T00:45:48.025Z,38.00
2023-02-14T00:47:49.822Z,38.00
2023-02-14T00:49:53.491Z,38.10
2023-02-14T00:51:55.276Z,38.00
2023-02-14T00:53:57.599Z,38.00
2023-02-14T00:55:59.389Z,38.10
2023-02-14T00:58:01.168Z,38.00
2023-02-14T01:00:03.298Z,38.00
2023-02-14T01:02:05.168Z,38.00
2023-02-14T01:04:07.096Z,38.00
2023-02-14T01:06:09.182Z,38.70
2023-02-14T01:08:10.952Z,38.10
2023-02-14T01:10:12.800Z,38.10
2023-02-14T01:12:14.508Z,38.10
2023-02-14T01:14:17.360Z,38.10
2023-02-14T01:16:20.827Z,38.10
2023-02-14T01:18:22.589Z,38.10
2023-02-14T01:20:24.494Z,38.10
2023-02-14T01:22:27.099Z,38.20
2023-02-14T01:24:28.857Z,38.10
2023-02-14T01:26:30.719Z,38.10
2023-02-14T01:28:36.179Z,38.10
2023-02-14T01:30:38.067Z,38.10
2023-02-14T01:32:40.021Z,38.00
2023-02-14T01:34:41.790Z,38.00
2023-02-14T01:36:43.627Z,38.00
2023-02-14T01:38:47.454Z,38.00
2023-02-14T01:40:49.273Z,38.00
2023-02-14T01:42:51.086Z,38.70
2023-02-14T01:44:57.599Z,38.10
2023-02-14T01:47:00.919Z,38.10
2023-02-14T01:49:09.377Z,38.10
2023-02-14T01:51:11.220Z,38.10
2023-02-14T01:53:15.106Z,38.10
2023-02-14T01:55:19.562Z,38.10
2023-02-14T01:57:22.374Z,38.10
2023-02-14T01:59:26.811Z,38.10
2023-02-14T02:01:29.671Z,38.20
2023-02-14T02:03:31.392Z,38.10
2023-02-14T02:05:33.360Z,38.10
2023-02-14T02:07:36.078Z,38.10
2023-02-14T02:09:37.852Z,38.10
2023-02-14T02:11:40.498Z,38.10
2023-02-14T02:13:42.377Z,38.10
2023-02-14T02:15:53.500Z,38.10
2023-02-14T02:17:58.118Z,38.10
2023-02-14T02:20:08.952Z,38.10
2023-02-14T02:22:17.198Z,38.00
2023-02-14T02:24:31.449Z,38.10
2023-02-14T02:26:52.048Z,38.00
2023-02-14T02:29:09.030Z,38.00
2023-02-14T02:31:13.777Z,38.00
2023-02-14T02:33:34.012Z,38.00
2023-02-14T02:35:55.018Z,38.00
2023-02-14T02:38:15.390Z,38.00
2023-02-14T02:40:25.272Z,38.00
2023-02-14T02:42:26.958Z,38.10
2023-02-14T02:44:37.779Z,38.00
2023-02-14T02:46:54.901Z,38.10
2023-02-14T02:49:10.085Z,38.10
2023-02-14T02:51:16.370Z,38.10
2023-02-14T02:53:21.318Z,38.10
2023-02-14T02:55:27.765Z,38.10
2023-02-14T02:57:35.697Z,38.10
2023-02-14T02:59:40.385Z,38.00
2023-02-14T03:01:42.277Z,38.10
2023-02-14T03:03:53.818Z,38.00
2023-02-14T03:05:56.940Z,38.10
2023-02-14T03:07:58.720Z,38.10
2023-02-14T03:10:02.412Z,38.10
2023-02-14T03:12:16.761Z,38.10
2023-02-14T03:14:18.721Z,38.00
2023-02-14T03:16:20.553Z,38.10
2023-02-14T03:18:22.285Z,38.20
2023-02-14T03:20:30.586Z,38.10
2023-02-14T03:22:32.919Z,38.10
2023-02-14T03:24:37.790Z,38.20
2023-02-14T03:26:47.032Z,38.10
2023-02-14T03:28:51.729Z,38.10
2023-02-14T03:30:56.446Z,38.00
2023-02-14T03:33:03.063Z,38.10
2023-02-14T03:35:07.512Z,38.10
2023-02-14T03:37:12.689Z,38.00
2023-02-14T03:39:26.310Z,38.00
2023-02-14T03:41:31.910Z,38.00
2023-02-14T03:43:39.259Z,38.10
2023-02-14T03:45:53.200Z,38.00
2023-02-14T03:47:56.296Z,38.00
2023-02-14T03:50:02.863Z,38.10
2023-02-14T03:52:06.483Z,38.00
2023-02-14T03:54:10.482Z,38.00
2023-02-14T03:56:12.169Z,38.00
2023-02-14T03:58:16.733Z,38.00
2023-02-14T04:00:18.959Z,38.00
2023-02-14T04:02:27.160Z,38.00
2023-02-14T04:04:31.075Z,38.10
2023-02-14T04:06:33.045Z,38.00
2023-02-14T04:08:34.904Z,38.00
2023-02-14T04:10:36.941Z,38.10
2023-02-14T04:12:38.764Z,38.00
2023-02-14T04:14:40.586Z,38.10
2023-02-14T04:16:42.655Z,38.00
2023-02-14T04:18:44.460Z,38.00
2023-02-14T04:20:46.269Z,38.00
2023-02-14T04:22:48.156Z,38.00
2023-02-14T04:24:49.956Z,38.00
2023-02-14T04:26:51.646Z,38.00
2023-02-14T04:28:53.404Z,38.00
2023-02-14T04:30:55.242Z,38.00
2023-02-14T04:32:57.085Z,38.00
2023-02-14T04:34:58.818Z,38.70
2023-02-14T04:37:00.612Z,38.10
2023-02-14T04:39:02.411Z,38.00
2023-02-14T04:41:04.327Z,38.10
2023-02-14T04:43:06.089Z,38.00
2023-02-14T04:45:08.086Z,38.10
2023-02-14T04:47:10.068Z,38.00
2023-02-14T04:49:11.923Z,38.00
2023-02-14T04:51:13.694Z,38.10
2023-02-14T04:53:15.500Z,38.00
2023-02-14T04:55:17.277Z,38.00
2023-02-14T04:57:19.038Z,38.00
2023-02-14T04:59:20.836Z,38.00
2023-02-14T05:01:22.569Z,38.60
2023-02-14T05:03:24.450Z,38.00
2023-02-14T05:05:26.250Z,38.00
2023-02-14T05:07:28.060Z,38.10
2023-02-14T05:09:29.813Z,38.00
2023-02-14T05:11:31.657Z,38.00
2023-02-14T05:13:33.376Z,38.00
2023-02-14T05:15:38.095Z,38.00
2023-02-14T05:17:40.407Z,38.00
2023-02-14T05:19:42.155Z,38.00
2023-02-14T05:21:43.919Z,38.00
2023-02-14T05:23:45.705Z,38.00
2023-02-14T05:25:48.143Z,38.00
2023-02-14T05:27:49.934Z,38.00
2023-02-14T05:29:51.698Z,38.00
2023-02-14T05:31:53.661Z,38.00
2023-02-14T05:33:55.534Z,38.00
2023-02-14T05:35:58.623Z,38.00
2023-02-14T05:38:00.474Z,38.00
2023-02-14T05:40:02.183Z,38.00
2023-02-14T05:42:03.932Z,38.00
2023-02-14T05:44:05.742Z,38.00
2023-02-14T05:46:07.538Z,38.00
2023-02-14T05:48:09.280Z,38.00
2023-02-14T05:50:11.330Z,38.00
2023-02-14T05:52:13.078Z,38.00
2023-02-14T05:54:14.885Z,38.00
2023-02-14T05:56:16.695Z,38.00
2023-02-14T05:58:18.458Z,38.10
2023-02-14T06:00:20.626Z,38.00
2023-02-14T06:02:22.627Z,38.00
2023-02-14T06:04:24.471Z,38.00
2023-02-14T06:06:26.242Z,38.00
2023-02-14T06:08:28.057Z,38.00
2023-02-14T06:10:30.105Z,38.00
2023-02-14T06:12:32.000Z,38.10
2023-02-14T06:14:33.735Z,38.00
2023-02-14T06:16:35.559Z,38.00
2023-02-14T06:18:37.371Z,38.00
2023-02-14T06:20:39.157Z,38.00
2023-02-14T06:22:40.968Z,37.90
2023-02-14T06:24:42.786Z,37.90
2023-02-14T06:26:44.497Z,37.90
2023-02-14T06:28:46.237Z,38.00
2023-02-14T06:30:48.164Z,38.00
2023-02-14T06:32:49.947Z,38.00
2023-02-14T06:34:51.681Z,38.00
2023-02-14T06:36:53.463Z,38.00
2023-02-14T06:38:55.164Z,38.50
2023-02-14T06:41:02.513Z,37.90
2023-02-14T06:43:04.569Z,37.90
2023-02-14T06:45:06.960Z,37.90
2023-02-14T06:47:08.727Z,38.00
2023-02-14T06:49:10.540Z,38.00
2023-02-14T06:51:12.431Z,37.90
2023-02-14T06:53:14.211Z,37.90
2023-02-14T06:55:16.066Z,37.90
2023-02-14T06:57:18.016Z,37.90
2023-02-14T06:59:19.811Z,37.90
2023-02-14T07:01:21.561Z,37.80
2023-02-14T07:03:23.550Z,37.90
2023-02-14T07:05:25.356Z,37.80
2023-02-14T07:07:27.102Z,37.90
2023-02-14T07:09:28.842Z,37.90
2023-02-14T07:11:30.684Z,37.80
2023-02-14T07:13:32.493Z,37.80
2023-02-14T07:15:34.219Z,37.90
2023-02-14T07:17:36.023Z,37.90
2023-02-14T07:19:37.798Z,37.90
2023-02-14T07:21:39.545Z,37.80
2023-02-14T07:23:41.319Z,37.80
2023-02-14T07:25:43.021Z,37.80
2023-02-14T07:27:44.811Z,37.80
2023-02-14T07:29:46.604Z,38.00
2023-02-14T07:31:48.515Z,37.90
2023-02-14T07:33:50.813Z,37.80
2023-02-14T07:35:52.642Z,37.90
2023-02-14T07:37:54.386Z,37.90
2023-02-14T07:39:56.131Z,37.90
2023-02-14T07:41:57.933Z,37.90
2023-02-14T07:44:01.678Z,37.80
2023-02-14T07:46:03.721Z,38.10
2023-02-14T07:48:05.524Z,37.90
2023-02-14T07:50:07.374Z,37.70
2023-02-14T07:52:09.297Z,37.70
2023-02-14T07:54:11.076Z,37.60
2023-02-14T07:56:12.867Z,37.60
2023-02-14T07:58:14.651Z,37.70
2023-02-14T08:00:16.942Z,37.80
2023-02-14T08:02:18.693Z,38.00
2023-02-14T08:04:20.518Z,37.00
2023-02-14T08:06:22.549Z,37.50
2023-02-14T08:08:28.168Z,37.30
2023-02-14T08:10:30.055Z,37.00
2023-02-14T08:12:31.813Z,36.80
2023-02-14T08:14:33.560Z,36.80
2023-02-14T08:16:35.507Z,36.90
2023-02-14T08:18:41.064Z,36.90
2023-02-14T08:20:42.849Z,37.00
2023-02-14T08:22:44.586Z,37.00
2023-02-14T08:24:46.363Z,37.10
2023-02-14T08:26:48.152Z,37.20
2023-02-14T08:28:49.942Z,37.80
2023-02-14T08:30:52.006Z,37.20
2023-02-14T08:32:53.850Z,37.30
2023-02-14T08:34:55.734Z,38.20
2023-02-14T08:36:57.497Z,37.90
2023-02-14T08:38:59.238Z,37.70
2023-02-14T08:41:03.073Z,37.80
2023-02-14T08:43:06.844Z,37.60
2023-02-14T08:45:08.936Z,37.50
2023-02-14T08:47:10.739Z,37.80
2023-02-14T08:49:12.542Z,37.80
2023-02-14T08:51:14.841Z,38.00
2023-02-14T08:53:16.658Z,37.70
2023-02-14T08:55:18.589Z,37.60
2023-02-14T08:57:20.488Z,37.80
2023-02-14T08:59:22.274Z,37.70
2023-02-14T09:01:24.105Z,37.70
2023-02-14T09:03:25.922Z,37.50
2023-02-14T09:05:27.715Z,37.70
2023-02-14T09:07:29.473Z,37.50
2023-02-14T09:09:31.632Z,37.50
2023-02-14T09:11:33.483Z,37.50
2023-02-14T09:13:35.237Z,37.60
2023-02-14T09:15:37.012Z,37.80
2023-02-14T09:17:39.231Z,37.80
2023-02-14T09:19:41.147Z,37.80
2023-02-14T09:21:42.871Z,37.60
2023-02-14T09:23:44.770Z,37.70
2023-02-14T09:25:46.527Z,37.60
2023-02-14T09:27:48.288Z,37.90
2023-02-14T09:29:50.129Z,37.80
2023-02-14T09:31:56.160Z,37.90
2023-02-14T09:33:57.956Z,37.40
2023-02-14T09:35:59.686Z,38.40
2023-02-14T09:38:01.438Z,37.80
2023-02-14T09:40:03.337Z,38.20
2023-02-14T09:42:14.773Z,38.10
2023-02-14T09:44:30.250Z,38.00
2023-02-14T09:46:35.304Z,38.20
2023-02-14T09:48:42.992Z,38.70
2023-02-14T09:50:47.736Z,38.20
2023-02-14T09:52:51.409Z,38.20
2023-02-14T09:54:55.637Z,38.40
2023-02-14T09:57:07.573Z,38.30
2023-02-14T09:59:15.689Z,37.60
2023-02-14T10:01:23.262Z,38.10
2023-02-14T10:03:25.082Z,38.10
2023-02-14T10:05:28.890Z,38.20
2023-02-14T10:07:40.075Z,38.10
2023-02-14T10:09:41.813Z,38.10
2023-02-14T10:11:45.448Z,38.10
2023-02-14T10:14:13.474Z,38.10
2023-02-14T10:16:31.320Z,38.20
2023-02-14T10:18:40.852Z,38.30
2023-02-14T10:20:44.813Z,38.40
2023-02-14T10:22:50.534Z,38.10
2023-02-14T10:25:03.682Z,38.60
2023-02-14T10:27:25.657Z,38.40
2023-02-14T10:29:27.430Z,38.20
2023-02-14T10:31:33.994Z,38.30
2023-02-14T10:33:36.326Z,38.20
2023-02-14T10:35:41.132Z,38.40
2023-02-14T10:37:51.952Z,38.60
2023-02-14T10:40:06.180Z,38.60
2023-02-14T10:42:29.377Z,38.40
2023-02-14T10:44:36.880Z,38.60
2023-02-14T10:46:41.614Z,39.10
2023-02-14T10:49:01.700Z,38.30
2023-02-14T10:51:16.428Z,38.20
2023-02-14T10:53:24.151Z,38.40
2023-02-14T10:55:36.655Z,38.10
2023-02-14T10:57:43.056Z,38.10
2023-02-14T11:00:02.087Z,38.10
2023-02-14T11:02:05.039Z,38.00
2023-02-14T11:04:07.014Z,37.90
2023-02-14T11:06:09.767Z,37.90
2023-02-14T11:08:17.346Z,38.30
2023-02-14T11:10:23.052Z,38.10
2023-02-14T11:12:35.914Z,39.10
2023-02-14T11:14:38.702Z,38.80
2023-02-14T11:16:40.576Z,38.20
2023-02-14T11:18:42.360Z,38.10
2023-02-14T11:20:44.135Z,38.20
2023-02-14T11:22:45.873Z,38.10
2023-02-14T11:24:47.629Z,38.20
2023-02-14T11:26:49.999Z,38.50
2023-02-14T11:28:51.896Z,38.90
2023-02-14T11:30:53.930Z,39.00
2023-02-14T11:32:56.076Z,38.90
2023-02-14T11:35:05.754Z,38.70
2023-02-14T11:37:36.682Z,38.60
2023-02-14T11:39:39.754Z,38.50
2023-02-14T11:41:51.859Z,38.40
2023-02-14T11:44:09.298Z,38.40
2023-02-14T11:46:29.358Z,38.20
2023-02-14T12:07:13.245Z,38.10
2023-02-14T12:09:24.203Z,38.80
2023-02-14T12:11:26.038Z,38.70
2023-02-14T12:13:27.862Z,38.70
2023-02-14T12:15:34.347Z,38.60
2023-02-14T12:17:37.424Z,38.70
2023-02-14T12:19:44.668Z,38.50
2023-02-14T12:21:58.151Z,39.70
2023-02-14T12:24:18.623Z,38.80
2023-02-14T12:26:29.078Z,38.50
2023-02-14T12:28:51.216Z,38.50
2023-02-14T12:30:53.093Z,38.50
2023-02-14T12:32:55.666Z,39.20
2023-02-14T12:35:13.200Z,38.90
2023-02-14T12:37:29.665Z,39.10
2023-02-14T12:39:37.293Z,39.00
2023-02-14T12:41:44.139Z,38.30
2023-02-14T12:43:47.946Z,38.30
2023-02-14T12:45:52.880Z,38.40
2023-02-14T12:47:54.609Z,38.30
2023-02-14T12:50:22.872Z,38.50
2023-02-14T12:52:31.541Z,38.50
2023-02-14T12:54:39.278Z,38.50
2023-02-14T12:56:44.161Z,38.40
2023-02-14T12:58:45.909Z,38.70
2023-02-14T13:01:07.955Z,38.70
2023-02-14T13:03:15.610Z,38.50
2023-02-14T13:05:29.630Z,38.50
2023-02-14T13:07:37.545Z,38.60
2023-02-14T13:09:49.675Z,38.50
2023-02-14T13:11:54.786Z,38.70
2023-02-14T13:14:05.482Z,38.60
2023-02-14T13:16:26.072Z,38.70
2023-02-14T13:18:28.478Z,38.90
2023-02-14T13:20:30.954Z,38.70
2023-02-14T13:22:33.766Z,38.80
2023-02-14T13:24:39.258Z,38.90
2023-02-14T13:26:43.383Z,38.80
2023-02-14T13:28:52.570Z,39.20
2023-02-14T13:30:55.442Z,38.50
2023-02-14T13:32:58.520Z,38.70
2023-02-14T13:35:00.642Z,38.60
2023-02-14T13:37:03.793Z,38.70
2023-02-14T13:39:05.749Z,38.90
2023-02-14T13:41:08.362Z,39.10
2023-02-14T13:43:10.157Z,39.50
2023-02-14T13:45:30.535Z,39.10
2023-02-14T13:47:32.394Z,38.70
2023-02-14T13:49:37.558Z,38.70
2023-02-14T13:51:45.446Z,38.50
2023-02-14T13:53:48.385Z,38.40
2023-02-14T13:55:50.113Z,38.40
2023-02-14T13:58:05.757Z,38.20
2023-02-14T14:00:16.886Z,38.20
2023-02-14T14:02:30.046Z,38.20
2023-02-14T14:04:36.358Z,38.20
2023-02-14T14:06:56.767Z,38.70
2023-02-14T14:08:58.536Z,38.40
2023-02-14T14:11:00.263Z,39.20
2023-02-14T14:13:02.056Z,38.50
2023-02-14T14:15:06.825Z,38.60
2023-02-14T14:17:19.833Z,38.60
2023-02-14T14:19:21.542Z,38.80
2023-02-14T14:21:23.304Z,39.00
2023-02-14T14:23:28.155Z,39.20
2023-02-14T14:25:34.072Z,39.30
2023-02-14T14:27:40.490Z,39.50
2023-02-14T14:29:45.400Z,39.80
2023-02-14T14:31:47.507Z,39.90
2023-02-14T14:33:57.206Z,40.10
2023-02-14T14:36:01.034Z,40.10
2023-02-14T14:38:02.984Z,40.10
2023-02-14T14:40:06.230Z,40.30
2023-02-14T14:42:09.735Z,40.30
2023-02-14T14:44:11.636Z,40.60
2023-02-14T14:46:14.310Z,40.40
2023-02-14T14:48:38.257Z,40.40
2023-02-14T14:50:43.918Z,40.50
2023-02-14T14:52:49.778Z,40.40
2023-02-14T14:54:51.817Z,40.60
2023-02-14T14:56:58.407Z,40.80
2023-02-14T14:59:38.883Z,40.80
2023-02-14T15:01:40.685Z,40.80
2023-02-14T15:03:42.438Z,40.80
2023-02-14T15:05:45.388Z,40.60
2023-02-14T15:07:47.110Z,40.70
2023-02-14T15:09:48.954Z,40.80
2023-02-14T15:11:52.178Z,40.80
2023-02-14T15:13:53.940Z,41.10
2023-02-14T15:15:55.703Z,41.10
2023-02-14T15:17:57.450Z,40.80
2023-02-14T15:20:01.146Z,40.80
2023-02-14T15:22:04.453Z,40.80
2023-02-14T15:24:10.969Z,40.70
2023-02-14T15:26:29.607Z,40.70
2023-02-14T15:28:32.688Z,40.50
2023-02-14T15:30:35.152Z,40.50
2023-02-14T15:32:37.321Z,40.70
2023-02-14T15:34:39.183Z,40.40
2023-02-14T15:36:41.909Z,40.70
2023-02-14T15:38:50.750Z,40.60
2023-02-14T15:40:52.605Z,40.90
2023-02-14T15:42:55.100Z,40.80
2023-02-14T15:45:18.766Z,40.60
2023-02-14T15:47:21.704Z,40.60
2023-02-14T15:49:27.254Z,40.60
2023-02-14T15:51:30.267Z,40.50
2023-02-14T15:53:39.158Z,40.50
2023-02-14T15:55:42.542Z,40.70
2023-02-14T15:57:49.024Z,40.50
2023-02-14T15:59:50.918Z,40.50
2023-02-14T16:02:00.376Z,40.30
2023-02-14T16:04:03.876Z,40.50
2023-02-14T16:06:05.640Z,40.90
2023-02-14T16:08:23.068Z,40.60
2023-02-14T16:10:28.979Z,40.60
2023-02-14T16:12:32.090Z,40.70
2023-02-14T16:14:37.148Z,40.40
2023-02-14T16:16:57.763Z,40.50
2023-02-14T16:18:59.570Z,40.30
2023-02-14T16:21:20.023Z,40.30
2023-02-14T16:23:26.502Z,40.70
2023-02-14T16:25:29.772Z,40.90
2023-02-14T16:27:31.556Z,41.10
2023-02-14T16:29:34.585Z,41.20
2023-02-14T16:34:09.651Z,41.30
2023-02-14T16:36:23.544Z,41.30
2023-02-14T16:38:25.315Z,41.60
2023-02-14T16:40:27.761Z,41.40
2023-02-14T16:42:29.566Z,41.30
2023-02-14T16:44:31.396Z,41.00
2023-02-14T16:46:35.281Z,40.90
2023-02-14T16:48:37.331Z,41.00
2023-02-14T16:50:40.051Z,41.50
2023-02-14T16:52:42.196Z,41.30
2023-02-14T16:54:44.112Z,41.30
2023-02-14T16:56:57.058Z,41.30
2023-02-14T16:58:58.883Z,41.30
2023-02-14T17:01:00.952Z,41.10
2023-02-14T17:03:03.104Z,41.30
2023-02-14T17:05:05.140Z,40.90
2023-02-14T17:07:07.156Z,40.90
2023-02-14T17:09:11.137Z,40.90
2023-02-14T17:11:13.152Z,40.90
2023-02-14T17:13:18.107Z,40.80
2023-02-14T17:15:21.460Z,40.80
2023-02-14T17:17:23.255Z,42.00
2023-02-14T17:19:25.310Z,41.00
2023-02-14T17:21:27.087Z,40.90
2023-02-14T17:23:28.837Z,40.70
2023-02-14T17:25:30.653Z,40.60
2023-02-14T17:27:32.390Z,40.60
2023-02-14T17:29:34.218Z,40.60
2023-02-14T17:31:36.204Z,40.60
2023-02-14T17:33:38.185Z,40.50
2023-02-14T17:35:39.885Z,41.20
2023-02-14T17:37:42.023Z,40.00
2023-02-14T17:39:43.781Z,39.50
2023-02-14T17:41:45.585Z,39.10
2023-02-14T17:43:47.347Z,38.40
2023-02-14T17:45:49.075Z,39.40
2023-02-14T17:47:50.865Z,38.70
2023-02-14T17:49:52.616Z,38.70
2023-02-14T17:51:54.372Z,38.80
2023-02-14T17:53:58.801Z,38.80
2023-02-14T17:56:07.339Z,38.90
2023-02-14T17:58:09.126Z,39.10
2023-02-14T18:00:11.952Z,39.10
2023-02-14T18:02:16.412Z,39.20
2023-02-14T18:04:18.180Z,39.20
2023-02-14T18:06:20.185Z,39.40
2023-02-14T18:08:21.905Z,39.40
2023-02-14T18:10:23.643Z,39.50
2023-02-14T18:12:25.561Z,39.50
2023-02-14T18:14:27.442Z,39.60
2023-02-14T18:16:29.268Z,39.60
2023-02-14T18:18:31.050Z,39.70
2023-02-14T18:20:33.330Z,39.60
2023-02-14T18:22:35.164Z,39.70
2023-02-14T18:24:36.917Z,39.70
2023-02-14T18:26:39.706Z,39.80
2023-02-14T18:28:41.593Z,39.80
2023-02-14T18:30:43.421Z,39.90
2023-02-14T18:32:45.191Z,39.90
2023-02-14T18:34:46.970Z,39.90
2023-02-14T18:36:50.054Z,39.90
2023-02-14T18:38:53.294Z,39.90
2023-02-14T18:40:55.070Z,39.90
2023-02-14T18:42:56.795Z,40.00
2023-02-14T18:45:00.023Z,40.00
2023-02-14T18:47:01.768Z,40.00
2023-02-14T18:49:04.930Z,40.00
2023-02-14T18:51:11.240Z,40.10
2023-02-14T18:53:13.057Z,40.10
2023-02-14T18:55:14.827Z,40.10
2023-02-14T18:57:16.583Z,40.20
2023-02-14T18:59:18.467Z,40.10
2023-02-14T19:01:21.759Z,40.80
2023-02-14T19:03:23.484Z,40.20
2023-02-14T19:05:25.280Z,40.20
2023-02-14T19:07:27.124Z,40.20
2023-02-14T19:09:28.931Z,40.20
2023-02-14T19:11:31.746Z,40.10
2023-02-14T19:13:33.513Z,40.20
2023-02-14T19:15:35.258Z,40.20
2023-02-14T19:17:37.479Z,40.20
2023-02-14T19:19:39.417Z,40.20
2023-02-14T19:21:41.122Z,40.20
2023-02-14T19:23:43.014Z,40.20
2023-02-14T19:25:44.782Z,40.20
2023-02-14T19:27:46.536Z,40.20
2023-02-14T19:29:48.378Z,40.20
2023-02-14T19:31:52.530Z,40.40
2023-02-14T19:33:54.615Z,40.30
2023-02-14T19:36:00.039Z,40.30
2023-02-14T19:38:01.795Z,40.30
2023-02-14T19:40:03.613Z,40.10
2023-02-14T19:42:05.393Z,40.10
2023-02-14T19:44:07.643Z,40.20
2023-02-14T19:46:09.425Z,40.20
2023-02-14T19:48:11.203Z,40.30
2023-02-14T19:50:12.994Z,40.20
2023-02-14T19:52:25.805Z,40.20
2023-02-14T19:54:27.933Z,40.20
2023-02-14T19:56:31.392Z,40.20
2023-02-14T19:58:33.126Z,40.20
2023-02-14T20:00:34.925Z,40.20
2023-02-14T20:02:36.784Z,40.30
2023-02-14T20:04:38.534Z,40.30
2023-02-14T20:06:40.743Z,40.30
2023-02-14T20:08:42.530Z,40.30
2023-02-14T20:10:44.773Z,40.30
2023-02-14T20:12:46.913Z,40.30
2023-02-14T20:14:51.626Z,40.30
2023-02-14T20:16:54.764Z,40.30
2023-02-14T20:18:56.606Z,40.30
2023-02-14T20:20:58.556Z,40.30
2023-02-14T20:23:01.637Z,40.30
2023-02-14T20:25:03.509Z,40.30
2023-02-14T20:27:05.336Z,40.30
2023-02-14T20:29:08.338Z,40.40
2023-02-14T20:31:11.528Z,40.30
2023-02-14T20:33:13.335Z,40.50
2023-02-14T20:35:15.123Z,40.30
2023-02-14T20:37:16.956Z,40.40
2023-02-14T20:39:19.470Z,40.40
2023-02-14T20:41:21.267Z,40.30
2023-02-14T20:43:25.860Z,40.40
2023-02-14T20:45:27.610Z,40.30
2023-02-14T20:47:29.344Z,40.30
2023-02-14T20:49:31.120Z,40.30
2023-02-14T20:51:32.890Z,40.40
2023-02-14T20:53:39.304Z,40.30
2023-02-14T20:55:41.030Z,40.30
2023-02-14T20:57:42.996Z,40.40
2023-02-14T20:59:44.981Z,40.40
2023-02-14T21:01:46.819Z,40.30
2023-02-14T21:03:49.456Z,40.40
2023-02-14T21:05:51.266Z,40.30
2023-02-14T21:07:53.003Z,40.40
2023-02-14T21:09:54.717Z,40.40
2023-02-14T21:11:56.513Z,40.40
2023-02-14T21:13:59.989Z,40.40
2023-02-14T21:16:02.549Z,40.50
2023-02-14T21:18:04.476Z,40.50
2023-02-14T21:20:06.894Z,40.50
2023-02-14T21:22:08.675Z,40.40
2023-02-14T21:24:12.791Z,40.40
2023-02-14T21:26:14.541Z,40.40
2023-02-14T21:28:16.288Z,40.40
2023-02-14T21:30:18.137Z,41.00
2023-02-14T21:32:20.057Z,40.40
2023-02-14T21:34:21.827Z,40.40
2023-02-14T21:36:24.657Z,40.40
2023-02-14T21:38:27.680Z,40.40
2023-02-14T21:40:29.484Z,40.40
2023-02-14T21:42:31.226Z,40.40
2023-02-14T21:44:33.309Z,40.40
2023-02-14T21:46:38.356Z,41.00
2023-02-14T21:48:40.571Z,40.50
2023-02-14T21:50:42.342Z,40.40
2023-02-14T21:52:44.084Z,40.40
2023-02-14T21:54:45.872Z,41.00
2023-02-14T21:56:47.637Z,40.40
2023-02-14T21:58:50.931Z,40.40
2023-02-14T22:00:52.712Z,40.40
2023-02-14T22:02:54.554Z,40.40
2023-02-14T22:04:56.316Z,40.40
2023-02-14T22:06:58.086Z,40.40
2023-02-14T22:08:59.818Z,40.40
2023-02-14T22:11:05.389Z,40.30
2023-02-14T22:13:07.187Z,40.40
2023-02-14T22:15:09.151Z,41.00
2023-02-14T22:17:10.957Z,40.40
2023-02-14T22:19:14.162Z,40.40
2023-02-14T22:21:17.437Z,40.40
2023-02-14T22:23:19.231Z,40.40
2023-02-14T22:25:21.005Z,40.40
2023-02-14T22:27:22.747Z,40.40
2023-02-14T22:29:24.501Z,40.40
2023-02-14T22:31:27.387Z,40.40
2023-02-14T22:33:29.164Z,40.40
2023-02-14T22:35:30.963Z,40.40
2023-02-14T22:37:32.771Z,40.40
2023-02-14T22:39:34.458Z,40.40
2023-02-14T22:41:36.223Z,40.40
2023-02-14T22:43:38.537Z,40.40
2023-02-14T22:45:40.252Z,40.40
2023-02-14T22:47:42.056Z,40.40
2023-02-14T22:49:44.004Z,40.40
2023-02-14T22:51:45.848Z,41.00
2023-02-14T22:53:48.084Z,40.40
2023-02-14T22:55:49.898Z,40.40
2023-02-14T22:57:51.705Z,40.40
2023-02-14T22:59:53.475Z,40.40
2023-02-14T23:01:55.334Z,40.40
2023-02-14T23:03:58.411Z,40.40
2023-02-14T23:06:00.616Z,40.30
2023-02-14T23:08:02.618Z,40.50
2023-02-14T23:10:04.858Z,40.40
2023-02-14T23:12:06.662Z,40.30
2023-02-14T23:14:08.604Z,40.30
2023-02-14T23:16:10.355Z,40.40
2023-02-14T23:18:12.700Z,40.40
2023-02-14T23:20:14.568Z,40.40
2023-02-14T23:22:20.965Z,40.30
2023-02-14T23:24:23.158Z,40.40
2023-02-14T23:26:24.946Z,40.40
2023-02-14T23:28:26.936Z,40.40
2023-02-14T23:30:28.781Z,40.40
2023-02-14T23:32:30.510Z,40.40
2023-02-14T23:34:33.690Z,40.30
2023-02-14T23:36:35.497Z,40.40
2023-02-14T23:38:37.238Z,40.40
2023-02-14T23:40:39.089Z,40.30
2023-02-14T23:42:40.867Z,40.40
2023-02-14T23:44:45.957Z,40.40
2023-02-14T23:46:48.481Z,40.30
2023-02-14T23:48:51.295Z,40.40
2023-02-14T23:50:53.031Z,40.40
2023-02-14T23:52:54.799Z,40.30
2023-02-14T23:54:56.576Z,40.30
2023-02-14T23:56:58.338Z,40.30
2023-02-14T23:59:00.107Z,40.40
